sensor_id;sensor_type;location;lat;lon;timestamp;pressure;altitude;pressure_sealevel;temperature;humidity
74529;BME280;63009;52.584;5.932;2023-02-01T00:01:07;101819.00;;;5.40;83.41
74529;BME280;63009;52.584;5.932;2023-02-01T00:03:33;101822.41;;;5.44;83.12
74529;BME280;63009;52.584;5.932;2023-02-01T00:05:59;101820.53;;;5.49;83.26
74529;BME280;63009;52.584;5.932;2023-02-01T00:08:25;101810.09;;;5.47;83.80
74529;BME280;63009;52.584;5.932;2023-02-01T00:11:06;101816.25;;;5.45;84.27
74529;BME280;63009;52.584;5.932;2023-02-01T00:13:34;101796.13;;;5.47;83.97
74529;BME280;63009;52.584;5.932;2023-02-01T00:16:04;101804.00;;;5.45;84.11
74529;BME280;63009;52.584;5.932;2023-02-01T00:18:30;101804.00;;;5.45;84.47
74529;BME280;63009;52.584;5.932;2023-02-01T00:20:55;101812.63;;;5.52;84.24
74529;BME280;63009;52.584;5.932;2023-02-01T00:23:21;101797.69;;;5.55;83.67
74529;BME280;63009;52.584;5.932;2023-02-01T00:25:46;101797.75;;;5.52;83.29
74529;BME280;63009;52.584;5.932;2023-02-01T00:28:11;101804.50;;;5.62;83.69
74529;BME280;63009;52.584;5.932;2023-02-01T00:30:38;101814.13;;;5.62;83.31
74529;BME280;63009;52.584;5.932;2023-02-01T00:33:03;101811.50;;;5.63;82.99
74529;BME280;63009;52.584;5.932;2023-02-01T00:35:28;101816.75;;;5.63;83.58
74529;BME280;63009;52.584;5.932;2023-02-01T00:37:54;101817.72;;;5.58;83.22
74529;BME280;63009;52.584;5.932;2023-02-01T00:40:19;101811.69;;;5.54;83.70
74529;BME280;63009;52.584;5.932;2023-02-01T00:42:44;101810.94;;;5.49;84.42
74529;BME280;63009;52.584;5.932;2023-02-01T00:45:10;101819.59;;;5.53;84.27
74529;BME280;63009;52.584;5.932;2023-02-01T00:47:35;101809.94;;;5.55;83.87
74529;BME280;63009;52.584;5.932;2023-02-01T00:50:00;101815.06;;;5.59;83.79
74529;BME280;63009;52.584;5.932;2023-02-01T00:52:26;101805.59;;;5.54;83.74
74529;BME280;63009;52.584;5.932;2023-02-01T00:54:51;101818.50;;;5.61;83.15
74529;BME280;63009;52.584;5.932;2023-02-01T00:57:16;101805.34;;;5.64;83.22
74529;BME280;63009;52.584;5.932;2023-02-01T00:59:41;101790.56;;;5.60;82.67
74529;BME280;63009;52.584;5.932;2023-02-01T01:02:07;101794.88;;;5.64;82.78
74529;BME280;63009;52.584;5.932;2023-02-01T01:04:32;101780.72;;;5.70;82.86
74529;BME280;63009;52.584;5.932;2023-02-01T01:06:57;101778.13;;;5.70;82.69
74529;BME280;63009;52.584;5.932;2023-02-01T01:09:23;101782.38;;;5.74;82.71
74529;BME280;63009;52.584;5.932;2023-02-01T01:11:48;101778.91;;;5.74;82.98
74529;BME280;63009;52.584;5.932;2023-02-01T01:14:13;101761.41;;;5.74;82.00
74529;BME280;63009;52.584;5.932;2023-02-01T01:16:38;101778.69;;;5.83;83.04
74529;BME280;63009;52.584;5.932;2023-02-01T01:19:04;101777.88;;;5.81;83.03
74529;BME280;63009;52.584;5.932;2023-02-01T01:21:30;101779.56;;;5.83;82.65
74529;BME280;63009;52.584;5.932;2023-02-01T01:23:56;101768.19;;;5.83;82.10
74529;BME280;63009;52.584;5.932;2023-02-01T01:26:24;101767.50;;;5.75;82.66
74529;BME280;63009;52.584;5.932;2023-02-01T01:28:50;101775.22;;;5.82;82.62
74529;BME280;63009;52.584;5.932;2023-02-01T01:31:17;101776.19;;;5.77;82.65
74529;BME280;63009;52.584;5.932;2023-02-01T01:33:42;101774.50;;;5.74;82.73
74529;BME280;63009;52.584;5.932;2023-02-01T01:36:09;101776.28;;;5.74;83.15
74529;BME280;63009;52.584;5.932;2023-02-01T01:38:36;101779.78;;;5.73;83.16
74529;BME280;63009;52.584;5.932;2023-02-01T01:41:01;101777.28;;;5.68;83.20
74529;BME280;63009;52.584;5.932;2023-02-01T01:43:46;101783.25;;;5.75;83.45
74529;BME280;63009;52.584;5.932;2023-02-01T01:46:16;101785.91;;;5.73;83.36
74529;BME280;63009;52.584;5.932;2023-02-01T01:48:42;101767.59;;;5.72;83.57
74529;BME280;63009;52.584;5.932;2023-02-01T01:51:10;101760.31;;;5.83;83.32
74529;BME280;63009;52.584;5.932;2023-02-01T01:53:44;101763.00;;;5.81;83.38
74529;BME280;63009;52.584;5.932;2023-02-01T01:56:11;101741.19;;;5.79;82.85
74529;BME280;63009;52.584;5.932;2023-02-01T01:58:37;101759.28;;;5.91;82.91
74529;BME280;63009;52.584;5.932;2023-02-01T02:01:02;101751.38;;;5.93;82.99
74529;BME280;63009;52.584;5.932;2023-02-01T02:03:38;101745.28;;;5.91;82.46
74529;BME280;63009;52.584;5.932;2023-02-01T02:06:06;101731.47;;;5.83;82.84
74529;BME280;63009;52.584;5.932;2023-02-01T02:08:35;101743.56;;;5.91;82.61
74529;BME280;63009;52.584;5.932;2023-02-01T02:11:01;101731.34;;;5.87;82.28
74529;BME280;63009;52.584;5.932;2023-02-01T02:13:30;101726.09;;;5.87;82.95
74529;BME280;63009;52.584;5.932;2023-02-01T02:16:08;101719.97;;;5.88;82.73
74529;BME280;63009;52.584;5.932;2023-02-01T02:24:34;101722.63;;;5.87;84.39
74529;BME280;63009;52.584;5.932;2023-02-01T02:27:18;101717.38;;;5.87;84.09
74529;BME280;63009;52.584;5.932;2023-02-01T02:32:54;101701.63;;;5.87;84.56
74529;BME280;63009;52.584;5.932;2023-02-01T02:41:50;101679.69;;;5.91;84.13
74529;BME280;63009;52.584;5.932;2023-02-01T02:45:12;101667.53;;;5.87;84.29
74529;BME280;63009;52.584;5.932;2023-02-01T02:50:37;101681.59;;;5.84;84.08
74529;BME280;63009;52.584;5.932;2023-02-01T02:53:34;101683.22;;;5.90;83.54
74529;BME280;63009;52.584;5.932;2023-02-01T02:56:21;101683.13;;;5.94;83.35
74529;BME280;63009;52.584;5.932;2023-02-01T02:59:08;101676.19;;;5.92;83.17
74529;BME280;63009;52.584;5.932;2023-02-01T03:01:54;101675.34;;;5.88;83.37
74529;BME280;63009;52.584;5.932;2023-02-01T03:04:38;101666.59;;;5.89;83.26
74529;BME280;63009;52.584;5.932;2023-02-01T03:07:42;101667.47;;;5.91;82.96
74529;BME280;63009;52.584;5.932;2023-02-01T03:10:03;101665.72;;;5.89;83.48
74529;BME280;63009;52.584;5.932;2023-02-01T03:12:34;101674.41;;;5.94;82.62
74529;BME280;63009;52.584;5.932;2023-02-01T03:15:24;101676.84;;;6.00;82.69
74529;BME280;63009;52.584;5.932;2023-02-01T03:17:53;101677.06;;;5.92;82.76
74529;BME280;63009;52.584;5.932;2023-02-01T03:20:22;101672.72;;;5.88;83.06
74529;BME280;63009;52.584;5.932;2023-02-01T03:22:49;101662.00;;;5.99;82.54
74529;BME280;63009;52.584;5.932;2023-02-01T03:25:22;101677.56;;;6.05;82.20
74529;BME280;63009;52.584;5.932;2023-02-01T03:28:09;101691.59;;;6.06;82.01
74529;BME280;63009;52.584;5.932;2023-02-01T03:30:40;101663.81;;;5.97;82.38
74529;BME280;63009;52.584;5.932;2023-02-01T03:33:10;101686.56;;;5.97;83.07
74529;BME280;63009;52.584;5.932;2023-02-01T03:44:23;101661.00;;;6.03;82.44
74529;BME280;63009;52.584;5.932;2023-02-01T03:47:17;101671.47;;;6.05;82.92
74529;BME280;63009;52.584;5.932;2023-02-01T03:49:58;101671.56;;;6.02;82.95
74529;BME280;63009;52.584;5.932;2023-02-01T03:52:32;101666.22;;;6.06;82.45
74529;BME280;63009;52.584;5.932;2023-02-01T03:55:01;101663.63;;;6.03;83.40
74529;BME280;63009;52.584;5.932;2023-02-01T03:57:31;101672.59;;;5.96;83.70
74529;BME280;63009;52.584;5.932;2023-02-01T04:00:13;101658.59;;;5.95;83.47
74529;BME280;63009;52.584;5.932;2023-02-01T04:02:39;101669.81;;;6.01;83.29
74529;BME280;63009;52.584;5.932;2023-02-01T04:05:04;101667.06;;;6.05;82.83
74529;BME280;63009;52.584;5.932;2023-02-01T04:07:30;101675.00;;;6.04;83.26
74529;BME280;63009;52.584;5.932;2023-02-01T04:09:55;101667.22;;;6.01;83.35
74529;BME280;63009;52.584;5.932;2023-02-01T04:12:20;101665.44;;;6.01;83.42
74529;BME280;63009;52.584;5.932;2023-02-01T04:14:45;101682.09;;;6.00;84.27
74529;BME280;63009;52.584;5.932;2023-02-01T04:17:11;101687.28;;;6.02;83.93
74529;BME280;63009;52.584;5.932;2023-02-01T04:19:36;101669.06;;;5.97;84.25
74529;BME280;63009;52.584;5.932;2023-02-01T04:22:01;101674.22;;;6.00;84.47
74529;BME280;63009;52.584;5.932;2023-02-01T04:24:26;101662.94;;;5.97;84.05
74529;BME280;63009;52.584;5.932;2023-02-01T04:26:52;101668.19;;;5.97;84.65
74529;BME280;63009;52.584;5.932;2023-02-01T04:29:17;101674.41;;;5.94;84.36
74529;BME280;63009;52.584;5.932;2023-02-01T04:31:42;101667.47;;;5.90;85.34
74529;BME280;63009;52.584;5.932;2023-02-01T04:34:07;101666.56;;;5.91;84.93
74529;BME280;63009;52.584;5.932;2023-02-01T04:36:33;101665.72;;;5.92;84.88
74529;BME280;63009;52.584;5.932;2023-02-01T04:38:58;101669.19;;;5.91;85.48
74529;BME280;63009;52.584;5.932;2023-02-01T04:41:23;101658.69;;;5.91;85.31
74529;BME280;63009;52.584;5.932;2023-02-01T04:43:50;101650.94;;;5.86;85.49
74529;BME280;63009;52.584;5.932;2023-02-01T04:46:16;101651.97;;;5.81;85.96
74529;BME280;63009;52.584;5.932;2023-02-01T04:48:41;101650.47;;;5.71;85.90
74529;BME280;63009;52.584;5.932;2023-02-01T04:51:08;101665.97;;;5.80;86.24
74529;BME280;63009;52.584;5.932;2023-02-01T04:53:33;101661.72;;;5.74;86.03
74529;BME280;63009;52.584;5.932;2023-02-01T04:55:58;101668.66;;;5.77;86.10
74529;BME280;63009;52.584;5.932;2023-02-01T04:58:24;101673.94;;;5.75;86.24
74529;BME280;63009;52.584;5.932;2023-02-01T05:00:49;101656.69;;;5.66;86.37
74529;BME280;63009;52.584;5.932;2023-02-01T05:03:15;101652.41;;;5.64;86.45
74529;BME280;63009;52.584;5.932;2023-02-01T05:05:40;101653.22;;;5.66;86.16
74529;BME280;63009;52.584;5.932;2023-02-01T05:08:06;101643.69;;;5.62;86.38
74529;BME280;63009;52.584;5.932;2023-02-01T05:10:31;101634.91;;;5.63;86.87
74529;BME280;63009;52.584;5.932;2023-02-01T05:12:56;101629.13;;;5.50;86.94
74529;BME280;63009;52.584;5.932;2023-02-01T05:15:40;101652.41;;;5.62;86.79
74529;BME280;63009;52.584;5.932;2023-02-01T05:18:05;101657.66;;;5.62;86.33
74529;BME280;63009;52.584;5.932;2023-02-01T05:20:31;101649.78;;;5.62;86.59
74529;BME280;63009;52.584;5.932;2023-02-01T05:22:56;101653.25;;;5.63;86.86
74529;BME280;63009;52.584;5.932;2023-02-01T05:25:21;101653.16;;;5.68;86.54
74529;BME280;63009;52.584;5.932;2023-02-01T05:27:47;101647.84;;;5.71;86.12
74529;BME280;63009;52.584;5.932;2023-02-01T05:30:12;101655.84;;;5.66;86.45
74529;BME280;63009;52.584;5.932;2023-02-01T05:32:38;101648.69;;;5.71;86.24
74529;BME280;63009;52.584;5.932;2023-02-01T05:35:03;101657.28;;;5.78;86.35
74529;BME280;63009;52.584;5.932;2023-02-01T05:37:28;101647.56;;;5.81;86.13
74529;BME280;63009;52.584;5.932;2023-02-01T05:39:54;101646.84;;;5.75;86.06
74529;BME280;63009;52.584;5.932;2023-02-01T05:42:19;101649.44;;;5.78;86.22
74529;BME280;63009;52.584;5.932;2023-02-01T05:44:44;101652.97;;;5.75;86.58
74529;BME280;63009;52.584;5.932;2023-02-01T05:47:10;101656.44;;;5.76;86.17
74529;BME280;63009;52.584;5.932;2023-02-01T05:49:35;101657.34;;;5.75;86.67
74529;BME280;63009;52.584;5.932;2023-02-01T05:52:01;101651.44;;;5.66;86.59
74529;BME280;63009;52.584;5.932;2023-02-01T05:54:26;101655.72;;;5.71;87.13
74529;BME280;63009;52.584;5.932;2023-02-01T05:56:51;101662.63;;;5.73;86.78
74529;BME280;63009;52.584;5.932;2023-02-01T05:59:17;101658.28;;;5.72;87.44
74529;BME280;63009;52.584;5.932;2023-02-01T06:01:42;101652.91;;;5.77;87.02
74529;BME280;63009;52.584;5.932;2023-02-01T06:04:07;101670.41;;;5.78;86.27
74529;BME280;63009;52.584;5.932;2023-02-01T06:06:33;101653.78;;;5.79;86.15
74529;BME280;63009;52.584;5.932;2023-02-01T06:08:59;101664.25;;;5.79;86.59
74529;BME280;63009;52.584;5.932;2023-02-01T06:11:25;101666.03;;;5.78;86.17
74529;BME280;63009;52.584;5.932;2023-02-01T06:13:50;101662.63;;;5.73;86.28
74529;BME280;63009;52.584;5.932;2023-02-01T06:16:15;101673.97;;;5.74;86.53
74529;BME280;63009;52.584;5.932;2023-02-01T06:18:41;101671.41;;;5.72;86.67
74529;BME280;63009;52.584;5.932;2023-02-01T06:21:07;101664.25;;;5.79;86.08
74529;BME280;63009;52.584;5.932;2023-02-01T06:23:33;101671.31;;;5.75;86.23
74529;BME280;63009;52.584;5.932;2023-02-01T06:26:01;101672.22;;;5.74;86.41
74529;BME280;63009;52.584;5.932;2023-02-01T06:28:27;101673.75;;;5.83;85.18
74529;BME280;63009;52.584;5.932;2023-02-01T06:30:53;101672.84;;;5.84;85.97
74529;BME280;63009;52.584;5.932;2023-02-01T06:33:18;101664.31;;;5.77;86.29
74529;BME280;63009;52.584;5.932;2023-02-01T06:35:44;101672.19;;;5.76;86.08
74529;BME280;63009;52.584;5.932;2023-02-01T06:38:10;101663.50;;;5.74;86.23
74529;BME280;63009;52.584;5.932;2023-02-01T06:40:37;101674.72;;;5.80;86.27
74529;BME280;63009;52.584;5.932;2023-02-01T06:43:02;101683.28;;;5.87;86.42
74529;BME280;63009;52.584;5.932;2023-02-01T06:45:27;101669.38;;;5.83;86.48
74529;BME280;63009;52.584;5.932;2023-02-01T06:47:52;101672.09;;;5.80;86.08
74529;BME280;63009;52.584;5.932;2023-02-01T06:50:18;101666.97;;;5.74;86.83
74529;BME280;63009;52.584;5.932;2023-02-01T06:52:43;101660.97;;;5.71;87.12
74529;BME280;63009;52.584;5.932;2023-02-01T06:55:08;101673.91;;;5.77;86.99
74529;BME280;63009;52.584;5.932;2023-02-01T06:57:34;101677.50;;;5.73;87.02
74529;BME280;63009;52.584;5.932;2023-02-01T07:00:02;101690.63;;;5.73;86.74
74529;BME280;63009;52.584;5.932;2023-02-01T07:02:27;101683.56;;;5.75;86.58
74529;BME280;63009;52.584;5.932;2023-02-01T07:04:53;101688.78;;;5.76;86.83
74529;BME280;63009;52.584;5.932;2023-02-01T07:07:18;101679.19;;;5.75;86.92
74529;BME280;63009;52.584;5.932;2023-02-01T07:09:45;101684.44;;;5.75;87.39
74529;BME280;63009;52.584;5.932;2023-02-01T07:12:10;101676.81;;;5.66;87.69
74529;BME280;63009;52.584;5.932;2023-02-01T07:14:35;101693.31;;;5.70;87.44
74529;BME280;63009;52.584;5.932;2023-02-01T07:17:01;101691.59;;;5.69;87.42
74529;BME280;63009;52.584;5.932;2023-02-01T07:19:26;101688.09;;;5.70;87.77
74529;BME280;63009;52.584;5.932;2023-02-01T07:21:51;101675.06;;;5.66;87.31
74529;BME280;63009;52.584;5.932;2023-02-01T07:24:16;101699.34;;;5.73;87.88
74529;BME280;63009;52.584;5.932;2023-02-01T07:26:42;101688.97;;;5.69;87.44
74529;BME280;63009;52.584;5.932;2023-02-01T07:29:07;101684.72;;;5.64;88.03
74529;BME280;63009;52.584;5.932;2023-02-01T07:31:32;101684.06;;;5.55;88.98
74529;BME280;63009;52.584;5.932;2023-02-01T07:33:57;101674.66;;;5.46;88.70
74529;BME280;63009;52.584;5.932;2023-02-01T07:36:24;101678.94;;;5.50;88.96
74529;BME280;63009;52.584;5.932;2023-02-01T07:38:49;101686.03;;;5.45;88.57
74529;BME280;63009;52.584;5.932;2023-02-01T07:41:17;101696.56;;;5.44;89.01
74529;BME280;63009;52.584;5.932;2023-02-01T07:43:42;101695.78;;;5.40;89.21
74529;BME280;63009;52.584;5.932;2023-02-01T07:46:10;101691.44;;;5.39;89.29
74529;BME280;63009;52.584;5.932;2023-02-01T07:48:35;101683.59;;;5.39;89.00
74529;BME280;63009;52.584;5.932;2023-02-01T07:51:02;101686.41;;;5.30;89.46
74529;BME280;63009;52.584;5.932;2023-02-01T07:53:29;101684.53;;;5.36;89.62
74529;BME280;63009;52.584;5.932;2023-02-01T07:55:55;101683.38;;;5.47;89.04
74529;BME280;63009;52.584;5.932;2023-02-01T07:58:24;101696.41;;;5.51;88.73
74529;BME280;63009;52.584;5.932;2023-02-01T08:00:49;101691.16;;;5.51;88.89
74529;BME280;63009;52.584;5.932;2023-02-01T08:03:33;101694.66;;;5.52;88.84
74529;BME280;63009;52.584;5.932;2023-02-01T08:05:58;101700.81;;;5.49;88.80
74529;BME280;63009;52.584;5.932;2023-02-01T08:08:24;101699.59;;;5.64;88.40
74529;BME280;63009;52.584;5.932;2023-02-01T08:10:49;101693.38;;;5.68;88.24
74529;BME280;63009;52.584;5.932;2023-02-01T08:13:15;101705.38;;;5.77;88.23
74529;BME280;63009;52.584;5.932;2023-02-01T08:15:40;101709.66;;;5.81;87.81
74529;BME280;63009;52.584;5.932;2023-02-01T08:18:05;101698.09;;;5.88;87.74
74529;BME280;63009;52.584;5.932;2023-02-01T08:20:31;101706.78;;;5.93;87.00
74529;BME280;63009;52.584;5.932;2023-02-01T08:22:56;101706.59;;;5.99;87.28
74529;BME280;63009;52.584;5.932;2023-02-01T08:25:23;101697.69;;;6.05;86.65
74529;BME280;63009;52.584;5.932;2023-02-01T08:27:49;101686.47;;;6.00;87.01
74529;BME280;63009;52.584;5.932;2023-02-01T08:30:15;101689.09;;;6.00;86.79
74529;BME280;63009;52.584;5.932;2023-02-01T08:32:40;101691.81;;;5.97;87.23
74529;BME280;63009;52.584;5.932;2023-02-01T08:35:06;101687.38;;;5.99;86.66
74529;BME280;63009;52.584;5.932;2023-02-01T08:37:31;101686.47;;;6.00;86.55
74529;BME280;63009;52.584;5.932;2023-02-01T08:39:57;101679.44;;;6.02;86.31
74529;BME280;63009;52.584;5.932;2023-02-01T08:42:22;101684.63;;;6.03;86.70
74529;BME280;63009;52.584;5.932;2023-02-01T08:45:07;101694.22;;;6.06;86.91
74529;BME280;63009;52.584;5.932;2023-02-01T08:47:33;101678.56;;;6.01;86.60
74529;BME280;63009;52.584;5.932;2023-02-01T08:49:58;101661.19;;;5.97;86.61
74529;BME280;63009;52.584;5.932;2023-02-01T08:52:24;101668.06;;;6.01;86.70
74529;BME280;63009;52.584;5.932;2023-02-01T08:54:49;101673.22;;;6.06;86.64
74529;BME280;63009;52.584;5.932;2023-02-01T08:57:15;101650.56;;;6.02;86.54
74529;BME280;63009;52.584;5.932;2023-02-01T08:59:40;101669.69;;;6.05;86.93
74529;BME280;63009;52.584;5.932;2023-02-01T09:02:05;101666.22;;;6.06;86.40
74529;BME280;63009;52.584;5.932;2023-02-01T09:04:30;101663.53;;;6.08;86.94
74529;BME280;63009;52.584;5.932;2023-02-01T09:06:56;101661.88;;;6.04;86.82
74529;BME280;63009;52.584;5.932;2023-02-01T09:09:22;101648.94;;;5.98;86.31
74529;BME280;63009;52.584;5.932;2023-02-01T09:11:48;101646.25;;;5.99;86.60
74529;BME280;63009;52.584;5.932;2023-02-01T09:14:15;101652.22;;;6.06;86.50
74529;BME280;63009;52.584;5.932;2023-02-01T09:16:40;101662.69;;;6.07;86.77
74529;BME280;63009;52.584;5.932;2023-02-01T09:19:06;101653.03;;;6.08;86.89
74529;BME280;63009;52.584;5.932;2023-02-01T09:21:31;101659.16;;;6.08;86.07
74529;BME280;63009;52.584;5.932;2023-02-01T09:23:56;101649.59;;;6.06;85.60
74529;BME280;63009;52.584;5.932;2023-02-01T09:26:22;101650.41;;;6.08;85.98
74529;BME280;63009;52.584;5.932;2023-02-01T09:28:47;101661.47;;;6.19;85.52
74529;BME280;63009;52.584;5.932;2023-02-01T09:31:12;101652.78;;;6.17;85.35
74529;BME280;63009;52.584;5.932;2023-02-01T09:33:37;101645.84;;;6.14;85.41
74529;BME280;63009;52.584;5.932;2023-02-01T09:36:04;101639.44;;;6.24;85.38
74529;BME280;63009;52.584;5.932;2023-02-01T09:38:30;101633.34;;;6.24;85.03
74529;BME280;63009;52.584;5.932;2023-02-01T09:40:57;101613.34;;;6.18;85.17
74529;BME280;63009;52.584;5.932;2023-02-01T09:45:57;101617.63;;;6.22;85.07
74529;BME280;63009;52.584;5.932;2023-02-01T09:48:29;101620.03;;;6.30;85.76
74529;BME280;63009;52.584;5.932;2023-02-01T09:50:58;101605.47;;;6.18;87.23
74529;BME280;63009;52.584;5.932;2023-02-01T09:53:35;101633.63;;;6.13;88.35
74529;BME280;63009;52.584;5.932;2023-02-01T09:56:06;101617.22;;;6.07;88.47
74529;BME280;63009;52.584;5.932;2023-02-01T09:58:42;101640.88;;;6.04;89.27
74529;BME280;63009;52.584;5.932;2023-02-01T10:01:22;101636.66;;;5.98;90.20
74529;BME280;63009;52.584;5.932;2023-02-01T10:03:49;101624.66;;;5.88;90.44
74529;BME280;63009;52.584;5.932;2023-02-01T10:16:58;101625.88;;;5.75;92.17
74529;BME280;63009;52.584;5.932;2023-02-01T10:20:03;101637.19;;;5.77;92.18
74529;BME280;63009;52.584;5.932;2023-02-01T10:27:59;101654.84;;;5.70;93.44
74529;BME280;63009;52.584;5.932;2023-02-01T10:30:30;101631.44;;;5.62;92.75
74529;BME280;63009;52.584;5.932;2023-02-01T10:33:25;101649.56;;;5.72;92.38
74529;BME280;63009;52.584;5.932;2023-02-01T10:35:54;101650.41;;;5.72;92.04
74529;BME280;63009;52.584;5.932;2023-02-01T10:38:26;101642.56;;;5.72;92.59
74529;BME280;63009;52.584;5.932;2023-02-01T10:40:55;101647.75;;;5.74;91.95
74529;BME280;63009;52.584;5.932;2023-02-01T10:43:22;101640.84;;;5.71;92.03
74529;BME280;63009;52.584;5.932;2023-02-01T10:45:47;101639.84;;;5.75;91.99
74529;BME280;63009;52.584;5.932;2023-02-01T10:48:13;101632.94;;;5.73;91.69
74529;BME280;63009;52.584;5.932;2023-02-01T10:51:05;101631.06;;;5.78;91.64
74529;BME280;63009;52.584;5.932;2023-02-01T10:53:50;101634.66;;;5.74;91.88
74529;BME280;63009;52.584;5.932;2023-02-01T10:56:23;101632.88;;;5.74;91.90
74529;BME280;63009;52.584;5.932;2023-02-01T10:58:49;101624.91;;;5.79;91.60
74529;BME280;63009;52.584;5.932;2023-02-01T11:01:21;101623.09;;;5.81;92.33
74529;BME280;63009;52.584;5.932;2023-02-01T11:03:54;101618.75;;;5.80;92.97
74529;BME280;63009;52.584;5.932;2023-02-01T11:06:28;101617.09;;;5.76;93.74
74529;BME280;63009;52.584;5.932;2023-02-01T11:08:56;101605.75;;;5.75;92.98
74529;BME280;63009;52.584;5.932;2023-02-01T11:11:23;101599.72;;;5.72;93.88
74529;BME280;63009;52.584;5.932;2023-02-01T11:13:57;101600.47;;;5.77;93.73
74529;BME280;63009;52.584;5.932;2023-02-01T11:16:28;101608.31;;;5.77;93.89
74529;BME280;63009;52.584;5.932;2023-02-01T11:18:54;101590.97;;;5.73;93.71
74529;BME280;63009;52.584;5.932;2023-02-01T11:21:20;101606.56;;;5.79;93.67
74529;BME280;63009;52.584;5.932;2023-02-01T11:23:46;101596.03;;;5.80;93.78
74529;BME280;63009;52.584;5.932;2023-02-01T11:26:26;101600.44;;;5.78;93.46
74529;BME280;63009;52.584;5.932;2023-02-01T11:28:57;101598.38;;;5.89;92.75
74529;BME280;63009;52.584;5.932;2023-02-01T11:31:24;101587.94;;;5.88;93.32
74529;BME280;63009;52.584;5.932;2023-02-01T11:33:58;101585.97;;;5.98;92.85
74529;BME280;63009;52.584;5.932;2023-02-01T11:36:27;101579.50;;;6.09;91.80
74529;BME280;63009;52.584;5.932;2023-02-01T11:39:38;101581.88;;;6.18;91.32
74529;BME280;63009;52.584;5.932;2023-02-01T11:42:00;101568.47;;;6.28;91.86
74529;BME280;63009;52.584;5.932;2023-02-01T11:44:39;101564.09;;;6.28;90.63
74529;BME280;63009;52.584;5.932;2023-02-01T11:47:23;101574.38;;;6.36;90.96
74529;BME280;63009;52.584;5.932;2023-02-01T11:49:51;101580.25;;;6.44;89.61
74529;BME280;63009;52.584;5.932;2023-02-01T11:52:21;101584.53;;;6.48;90.12
74529;BME280;63009;52.584;5.932;2023-02-01T11:57:38;101583.78;;;6.43;91.88
74529;BME280;63009;52.584;5.932;2023-02-01T12:06:08;101574.78;;;6.22;92.65
74529;BME280;63009;52.584;5.932;2023-02-01T12:11:42;101564.19;;;6.25;92.98
74529;BME280;63009;52.584;5.932;2023-02-01T12:14:26;101579.88;;;6.27;92.78
74529;BME280;63009;52.584;5.932;2023-02-01T12:28:03;101581.31;;;6.38;91.22
74529;BME280;63009;52.584;5.932;2023-02-01T12:30:39;101577.16;;;6.30;92.64
74529;BME280;63009;52.584;5.932;2023-02-01T12:36:00;101578.84;;;6.32;93.06
74529;BME280;63009;52.584;5.932;2023-02-01T12:41:42;101581.56;;;6.29;93.80
74529;BME280;63009;52.584;5.932;2023-02-01T12:44:38;101576.41;;;6.26;93.64
74529;BME280;63009;52.584;5.932;2023-02-01T12:47:06;101570.94;;;6.34;93.36
74529;BME280;63009;52.584;5.932;2023-02-01T12:49:53;101574.34;;;6.37;93.36
74529;BME280;63009;52.584;5.932;2023-02-01T12:52:30;101589.09;;;6.41;93.34
74529;BME280;63009;52.584;5.932;2023-02-01T12:57:40;101590.84;;;6.41;93.14
74529;BME280;63009;52.584;5.932;2023-02-01T13:05:20;101591.50;;;6.49;93.26
74529;BME280;63009;52.584;5.932;2023-02-01T13:10:19;101575.97;;;6.41;93.41
74529;BME280;63009;52.584;5.932;2023-02-01T13:12:53;101586.38;;;6.44;93.60
74529;BME280;63009;52.584;5.932;2023-02-01T13:15:27;101595.81;;;6.51;93.81
74529;BME280;63009;52.584;5.932;2023-02-01T13:17:57;101591.25;;;6.57;93.21
74529;BME280;63009;52.584;5.932;2023-02-01T13:20:30;101592.81;;;6.64;92.38
74529;BME280;63009;52.584;5.932;2023-02-01T13:25:51;101606.84;;;6.63;91.59
74529;BME280;63009;52.584;5.932;2023-02-01T13:28:23;101604.03;;;6.69;91.40
74529;BME280;63009;52.584;5.932;2023-02-01T13:31:26;101617.16;;;6.69;90.83
74529;BME280;63009;52.584;5.932;2023-02-01T13:40:17;101597.22;;;6.63;90.55
74529;BME280;63009;52.584;5.932;2023-02-01T13:42:52;101602.31;;;6.68;91.20
74529;BME280;63009;52.584;5.932;2023-02-01T13:45:21;101607.41;;;6.72;90.89
74529;BME280;63009;52.584;5.932;2023-02-01T13:47:50;101610.03;;;6.72;90.50
74529;BME280;63009;52.584;5.932;2023-02-01T13:50:25;101610.09;;;6.71;90.92
74529;BME280;63009;52.584;5.932;2023-02-01T13:53:14;101611.09;;;6.67;91.49
74529;BME280;63009;52.584;5.932;2023-02-01T13:55:43;101613.59;;;6.71;90.55
74529;BME280;63009;52.584;5.932;2023-02-01T13:58:21;101609.22;;;6.70;90.32
74529;BME280;63009;52.584;5.932;2023-02-01T14:00:48;101623.22;;;6.71;91.03
74529;BME280;63009;52.584;5.932;2023-02-01T14:03:21;101622.22;;;6.75;90.41
74529;BME280;63009;52.584;5.932;2023-02-01T14:05:55;101615.94;;;6.80;91.00
74529;BME280;63009;52.584;5.932;2023-02-01T14:08:39;101612.41;;;6.81;89.99
74529;BME280;63009;52.584;5.932;2023-02-01T14:11:05;101622.06;;;6.81;90.25
74529;BME280;63009;52.584;5.932;2023-02-01T14:13:32;101616.53;;;6.90;89.55
74529;BME280;63009;52.584;5.932;2023-02-01T14:21:33;101630.28;;;6.98;88.90
74529;BME280;63009;52.584;5.932;2023-02-01T14:44:51;101650.00;;;6.83;90.38
74529;BME280;63009;52.584;5.932;2023-02-01T14:50:11;101657.84;;;6.85;90.35
74529;BME280;63009;52.584;5.932;2023-02-01T14:52:40;101653.69;;;6.78;90.05
74529;BME280;63009;52.584;5.932;2023-02-01T14:57:43;101646.00;;;6.70;89.53
74529;BME280;63009;52.584;5.932;2023-02-01T15:00:27;101657.28;;;6.74;90.10
74529;BME280;63009;52.584;5.932;2023-02-01T15:02:55;101662.59;;;6.72;90.30
74529;BME280;63009;52.584;5.932;2023-02-01T15:05:32;101657.31;;;6.72;89.77
74529;BME280;63009;52.584;5.932;2023-02-01T15:08:04;101655.75;;;6.67;90.36
74529;BME280;63009;52.584;5.932;2023-02-01T15:10:32;101663.41;;;6.74;89.85
74529;BME280;63009;52.584;5.932;2023-02-01T15:12:58;101669.50;;;6.75;89.91
74529;BME280;63009;52.584;5.932;2023-02-01T15:15:24;101678.34;;;6.72;90.69
74529;BME280;63009;52.584;5.932;2023-02-01T15:17:57;101680.88;;;6.75;89.84